Time;durP1;ratioP1;P1;durP2;ratioP2;P2;SDS_P1;SDS_P2;PMS_P1;PMS_P2;Temp;Humidity;BMP_temperature;BMP_pressure;BME280_temperature;BME280_humidity;BME280_pressure;Samples;Min_cycle;Max_cycle;Signal;HPM_P1;HPM_P2
2022/03/14 00:00:50;;;;;;;8.20;7.40;;;;;;;;;;5055987;28;20416;-82
2022/03/14 00:03:16;;;;;;;8.35;7.55;;;;;;;;;;5056783;28;20047;-82
2022/03/14 00:05:42;;;;;;;7.68;6.88;;;;;;;;;;5051902;28;20094;-82
2022/03/14 00:08:09;;;;;;;8.73;7.93;;;;;;;;;;5047887;28;20488;-82
2022/03/14 00:10:35;;;;;;;8.63;7.72;;;;;;;;;;5056837;28;20392;-81
2022/03/14 00:13:03;;;;;;;8.98;8.07;;;;;;;;;;5052699;28;20052;-81
2022/03/14 00:15:31;;;;;;;9.43;8.52;;;;;;;;;;5059785;28;20078;-82
2022/03/14 00:17:59;;;;;;;9.95;9.05;;;;;;;;;;5053896;28;20052;-82
2022/03/14 00:20:25;;;;;;;9.25;8.13;;;;;;;;;;5047772;28;20083;-81
2022/03/14 00:22:51;;;;;;;9.43;8.48;;;;;;;;;;5046894;28;20045;-82
2022/03/14 00:25:17;;;;;;;9.63;8.63;;;;;;;;;;5041257;28;20045;-82
2022/03/14 00:27:43;;;;;;;9.40;8.50;;;;;;;;;;5046021;28;20044;-81
2022/03/14 00:30:11;;;;;;;9.27;8.38;;;;;;;;;;5045182;28;20052;-81
2022/03/14 00:32:37;;;;;;;10.60;8.55;;;;;;;;;;5045117;28;20036;-82
2022/03/14 00:35:04;;;;;;;10.15;9.15;;;;;;;;;;5048812;28;20048;-81
2022/03/14 00:37:30;;;;;;;10.13;9.13;;;;;;;;;;5046328;28;20044;-82
2022/03/14 00:39:56;;;;;;;9.73;8.73;;;;;;;;;;5050407;28;20074;-82
2022/03/14 00:42:22;;;;;;;10.73;9.73;;;;;;;;;;5046657;28;20063;-82
2022/03/14 00:44:49;;;;;;;10.60;9.60;;;;;;;;;;5043374;28;20102;-82
2022/03/14 00:47:16;;;;;;;9.75;8.85;;;;;;;;;;5049486;28;20093;-82
2022/03/14 00:49:42;;;;;;;10.30;9.27;;;;;;;;;;5053806;28;20040;-81
2022/03/14 00:52:08;;;;;;;10.55;9.55;;;;;;;;;;5031141;28;20053;-82
2022/03/14 00:54:34;;;;;;;10.25;9.20;;;;;;;;;;5044832;28;20087;-81
2022/03/14 00:57:00;;;;;;;10.13;9.13;;;;;;;;;;5052168;28;20081;-81
2022/03/14 00:59:27;;;;;;;10.73;9.73;;;;;;;;;;5035938;28;20171;-82
2022/03/14 01:01:54;;;;;;;10.20;9.20;;;;;;;;;;5036032;28;20416;-82
2022/03/14 01:04:20;;;;;;;9.75;8.85;;;;;;;;;;5055333;28;20056;-82
2022/03/14 01:06:46;;;;;;;9.73;8.80;;;;;;;;;;5035323;28;20041;-82
2022/03/14 01:09:14;;;;;;;10.63;9.55;;;;;;;;;;5027612;28;20102;-82
2022/03/14 01:11:44;;;;;;;9.90;9.00;;;;;;;;;;5031877;28;20044;-81
2022/03/14 01:14:11;;;;;;;10.35;9.27;;;;;;;;;;5054912;28;20049;-82
2022/03/14 01:16:37;;;;;;;10.20;9.20;;;;;;;;;;5052082;28;20492;-81
2022/03/14 01:19:04;;;;;;;9.43;8.48;;;;;;;;;;5065289;28;20056;-82
2022/03/14 01:21:31;;;;;;;9.77;8.88;;;;;;;;;;5055650;28;20041;-82
2022/03/14 01:23:58;;;;;;;9.02;8.13;;;;;;;;;;5036452;28;20063;-82
2022/03/14 01:26:24;;;;;;;10.13;9.07;;;;;;;;;;5062498;28;20091;-82
2022/03/14 01:28:50;;;;;;;9.63;8.73;;;;;;;;;;5060504;28;20036;-82
2022/03/14 01:31:18;;;;;;;9.18;8.27;;;;;;;;;;5056258;28;20045;-82
2022/03/14 01:33:44;;;;;;;9.70;8.70;;;;;;;;;;5025384;28;20041;-82
2022/03/14 01:36:10;;;;;;;8.93;8.05;;;;;;;;;;5060318;28;20056;-81
2022/03/14 01:38:36;;;;;;;8.43;7.50;;;;;;;;;;5056405;28;20369;-81
2022/03/14 01:41:03;;;;;;;8.68;7.78;;;;;;;;;;5064639;28;20032;-81
2022/03/14 01:43:29;;;;;;;8.13;7.32;;;;;;;;;;5052655;28;20033;-81
2022/03/14 01:45:58;;;;;;;7.95;7.15;;;;;;;;;;5035494;28;20049;-82
2022/03/14 01:48:25;;;;;;;8.20;7.40;;;;;;;;;;5059045;28;20053;-81
2022/03/14 01:50:51;;;;;;;9.07;8.23;;;;;;;;;;5075799;28;20101;-82
2022/03/14 01:53:18;;;;;;;8.13;7.40;;;;;;;;;;5041069;28;20040;-82
2022/03/14 01:55:45;;;;;;;7.82;7.13;;;;;;;;;;5073530;28;20072;-81
2022/03/14 01:58:11;;;;;;;8.23;7.43;;;;;;;;;;5085643;28;20035;-81
2022/03/14 02:00:37;;;;;;;8.85;7.97;;;;;;;;;;5055851;28;20135;-81
2022/03/14 02:03:03;;;;;;;7.60;6.90;;;;;;;;;;5062009;28;20043;-81
2022/03/14 02:05:29;;;;;;;6.97;6.32;;;;;;;;;;5071516;28;20772;-81
2022/03/14 02:07:58;;;;;;;7.38;6.68;;;;;;;;;;5061966;28;20051;-82
2022/03/14 02:10:24;;;;;;;6.60;6.00;;;;;;;;;;5051840;28;20036;-81
2022/03/14 02:12:50;;;;;;;6.57;5.93;;;;;;;;;;5081744;28;20040;-82
2022/03/14 02:15:16;;;;;;;6.22;5.63;;;;;;;;;;5049593;28;20047;-81
2022/03/14 02:17:42;;;;;;;6.38;5.78;;;;;;;;;;5076984;28;20119;-82
2022/03/14 02:20:08;;;;;;;5.68;5.20;;;;;;;;;;5063583;28;20518;-82
2022/03/14 02:22:34;;;;;;;5.80;5.30;;;;;;;;;;5080457;28;20452;-82
2022/03/14 02:25:01;;;;;;;5.18;4.78;;;;;;;;;;5063695;28;20078;-81
2022/03/14 02:27:27;;;;;;;5.95;5.35;;;;;;;;;;5076493;28;20049;-81
2022/03/14 02:29:53;;;;;;;5.40;4.90;;;;;;;;;;5060697;28;20079;-81
2022/03/14 02:32:19;;;;;;;5.25;4.80;;;;;;;;;;5051852;28;20536;-81
2022/03/14 02:34:45;;;;;;;4.50;4.10;;;;;;;;;;5061021;28;20041;-81
2022/03/14 02:37:11;;;;;;;5.15;4.65;;;;;;;;;;5048646;28;20056;-81
2022/03/14 02:39:38;;;;;;;4.93;4.43;;;;;;;;;;5057399;28;20037;-82
2022/03/14 02:42:04;;;;;;;4.70;4.30;;;;;;;;;;5076889;28;20429;-81
2022/03/14 02:44:34;;;;;;;4.90;4.40;;;;;;;;;;5065847;28;20047;-81
2022/03/14 02:47:04;;;;;;;4.75;4.35;;;;;;;;;;5057929;28;20152;-81
2022/03/14 02:49:31;;;;;;;4.45;4.05;;;;;;;;;;5032479;28;20056;-81
2022/03/14 02:51:57;;;;;;;4.50;4.10;;;;;;;;;;5037245;28;20362;-82
2022/03/14 02:54:23;;;;;;;4.25;3.92;;;;;;;;;;5035739;28;20090;-82
2022/03/14 02:56:49;;;;;;;4.63;4.30;;;;;;;;;;5039359;28;20076;-81
2022/03/14 02:59:14;;;;;;;5.10;4.70;;;;;;;;;;5050090;28;20045;-81
2022/03/14 03:01:41;;;;;;;4.95;4.45;;;;;;;;;;5055551;28;20044;-81
2022/03/14 03:04:07;;;;;;;5.07;4.60;;;;;;;;;;5048757;28;20565;-82
2022/03/14 03:06:33;;;;;;;5.25;4.75;;;;;;;;;;5054837;28;20053;-81
2022/03/14 03:08:59;;;;;;;5.68;5.15;;;;;;;;;;5060965;28;20045;-82
2022/03/14 03:11:25;;;;;;;5.15;4.65;;;;;;;;;;5054047;28;21278;-81
2022/03/14 03:13:54;;;;;;;5.20;4.80;;;;;;;;;;5053499;28;20048;-81
2022/03/14 03:16:21;;;;;;;5.22;4.72;;;;;;;;;;5063849;28;20079;-81
2022/03/14 03:18:47;;;;;;;5.10;4.55;;;;;;;;;;5059632;28;20102;-81
2022/03/14 03:21:13;;;;;;;5.20;4.80;;;;;;;;;;5047992;28;20045;-82
2022/03/14 03:23:40;;;;;;;5.32;4.78;;;;;;;;;;5060265;28;20033;-82
2022/03/14 03:26:06;;;;;;;5.38;4.88;;;;;;;;;;5056097;28;20037;-81
2022/03/14 03:28:35;;;;;;;4.95;4.55;;;;;;;;;;5058221;28;20392;-81
2022/03/14 03:31:07;;;;;;;4.80;4.40;;;;;;;;;;5056463;28;20032;-81
2022/03/14 03:33:34;;;;;;;5.20;4.80;;;;;;;;;;5049850;28;20131;-82
2022/03/14 03:36:00;;;;;;;5.15;4.65;;;;;;;;;;5057132;28;20036;-81
2022/03/14 03:38:26;;;;;;;5.32;4.82;;;;;;;;;;5050449;28;20618;-81
2022/03/14 03:40:52;;;;;;;4.45;4.07;;;;;;;;;;5060076;28;20051;-81
2022/03/14 03:43:18;;;;;;;5.00;4.50;;;;;;;;;;5055200;28;20100;-80
2022/03/14 03:45:44;;;;;;;4.72;4.32;;;;;;;;;;5059939;28;20044;-81
2022/03/14 03:48:10;;;;;;;4.53;4.20;;;;;;;;;;5040490;28;20404;-81
2022/03/14 03:50:36;;;;;;;4.90;4.50;;;;;;;;;;5042081;28;20064;-80
2022/03/14 03:53:02;;;;;;;4.75;4.30;;;;;;;;;;5045450;28;20063;-80
2022/03/14 03:55:28;;;;;;;5.15;4.00;;;;;;;;;;5042777;28;20128;-80
2022/03/14 03:57:54;;;;;;;4.80;4.40;;;;;;;;;;5054313;28;20439;-80
2022/03/14 04:00:22;;;;;;;4.95;4.55;;;;;;;;;;5059060;28;20040;-80
2022/03/14 04:02:50;;;;;;;4.60;4.20;;;;;;;;;;5056143;28;20044;-80
2022/03/14 04:05:16;;;;;;;4.53;4.13;;;;;;;;;;5061595;28;20044;-81
2022/03/14 04:07:43;;;;;;;4.38;4.00;;;;;;;;;;5058066;28;20407;-80
2022/03/14 04:10:12;;;;;;;4.78;4.38;;;;;;;;;;5064650;28;20048;-80
2022/03/14 04:12:39;;;;;;;4.90;4.50;;;;;;;;;;5040670;28;20441;-81
2022/03/14 04:15:09;;;;;;;4.20;3.90;;;;;;;;;;5055340;28;20480;-80
2022/03/14 04:17:38;;;;;;;4.70;4.30;;;;;;;;;;5046951;28;20129;-80
2022/03/14 04:20:04;;;;;;;4.25;3.92;;;;;;;;;;5061656;28;20048;-81
2022/03/14 04:22:32;;;;;;;4.20;3.90;;;;;;;;;;5057747;28;20079;-81
2022/03/14 04:24:59;;;;;;;4.22;3.83;;;;;;;;;;5066948;28;20059;-81
2022/03/14 04:27:25;;;;;;;4.22;3.92;;;;;;;;;;5050315;28;20115;-80
2022/03/14 04:29:51;;;;;;;3.95;3.65;;;;;;;;;;5058480;28;20037;-81
2022/03/14 04:32:17;;;;;;;3.72;3.42;;;;;;;;;;5052719;28;20041;-81
2022/03/14 04:34:43;;;;;;;4.10;3.70;;;;;;;;;;5049368;28;20037;-81
2022/03/14 04:37:11;;;;;;;3.72;3.42;;;;;;;;;;5046389;28;20049;-81
2022/03/14 04:39:37;;;;;;;3.75;3.45;;;;;;;;;;5054113;28;20140;-81
2022/03/14 04:42:06;;;;;;;3.80;3.50;;;;;;;;;;5063512;28;20116;-81
2022/03/14 04:44:32;;;;;;;3.60;3.30;;;;;;;;;;5058366;28;20044;-81
2022/03/14 04:46:59;;;;;;;3.40;3.10;;;;;;;;;;5055749;28;20428;-81
2022/03/14 04:49:26;;;;;;;3.53;3.22;;;;;;;;;;5067689;28;20060;-81
2022/03/14 04:51:54;;;;;;;3.13;2.90;;;;;;;;;;5071767;28;20054;-81
2022/03/14 04:54:20;;;;;;;3.45;3.15;;;;;;;;;;5076372;28;20053;-81
2022/03/14 04:56:46;;;;;;;3.15;2.95;;;;;;;;;;5059105;28;20060;-80
2022/03/14 04:59:12;;;;;;;3.40;3.10;;;;;;;;;;5071516;28;20046;-81
2022/03/14 05:01:39;;;;;;;3.30;3.08;;;;;;;;;;5051941;28;20060;-81
2022/03/14 05:04:06;;;;;;;3.42;3.20;;;;;;;;;;5082285;28;20043;-81
2022/03/14 05:06:35;;;;;;;3.83;3.53;;;;;;;;;;5079698;28;20554;-81
2022/03/14 05:09:01;;;;;;;3.70;3.30;;;;;;;;;;5080698;28;20044;-81
2022/03/14 05:11:27;;;;;;;3.60;3.30;;;;;;;;;;5072350;28;20075;-81
2022/03/14 05:13:53;;;;;;;3.28;3.05;;;;;;;;;;5060833;28;20111;-81
2022/03/14 05:16:20;;;;;;;3.53;3.22;;;;;;;;;;5078057;28;20055;-80
2022/03/14 05:18:47;;;;;;;3.35;3.15;;;;;;;;;;5058084;28;20530;-81
2022/03/14 05:21:13;;;;;;;3.60;3.30;;;;;;;;;;5069688;28;20041;-81
2022/03/14 05:23:40;;;;;;;3.42;3.05;;;;;;;;;;5055285;28;20047;-80
2022/03/14 05:26:09;;;;;;;3.40;3.10;;;;;;;;;;5073792;28;20426;-81
2022/03/14 05:28:35;;;;;;;3.50;3.20;;;;;;;;;;5075381;28;20040;-81
2022/03/14 05:31:01;;;;;;;3.08;2.88;;;;;;;;;;5072401;28;20049;-80
2022/03/14 05:33:27;;;;;;;3.40;3.15;;;;;;;;;;5064907;28;20048;-81
2022/03/14 05:35:54;;;;;;;3.13;2.92;;;;;;;;;;5066651;28;20471;-80
2022/03/14 05:38:22;;;;;;;3.38;3.17;;;;;;;;;;5068782;28;20572;-80
2022/03/14 05:40:49;;;;;;;3.28;3.05;;;;;;;;;;5070123;28;20052;-80
2022/03/14 05:43:15;;;;;;;3.80;3.47;;;;;;;;;;5050824;28;20414;-80
2022/03/14 05:45:41;;;;;;;3.60;3.30;;;;;;;;;;5070996;28;20041;-80
2022/03/14 05:48:07;;;;;;;3.65;3.35;;;;;;;;;;5070325;28;20048;-80
2022/03/14 05:50:33;;;;;;;3.75;3.45;;;;;;;;;;5050747;28;20131;-80
2022/03/14 05:52:59;;;;;;;3.65;3.33;;;;;;;;;;5064720;28;20091;-80
2022/03/14 05:55:25;;;;;;;3.40;3.10;;;;;;;;;;5066589;28;21902;-80
2022/03/14 05:57:52;;;;;;;3.65;3.35;;;;;;;;;;5054934;28;20048;-80
2022/03/14 06:00:20;;;;;;;3.60;3.30;;;;;;;;;;5053911;28;20098;-80
2022/03/14 06:02:47;;;;;;;3.70;3.40;;;;;;;;;;5048989;28;20407;-80
2022/03/14 06:05:13;;;;;;;3.90;3.50;;;;;;;;;;5077483;28;20081;-80
2022/03/14 06:07:40;;;;;;;7.10;6.38;;;;;;;;;;5073567;28;20111;-81
2022/03/14 06:10:07;;;;;;;4.53;3.95;;;;;;;;;;5051012;28;20079;-80
2022/03/14 06:12:36;;;;;;;4.28;3.88;;;;;;;;;;5070088;28;20501;-81
2022/03/14 06:15:02;;;;;;;4.07;3.78;;;;;;;;;;5049503;28;20486;-81
2022/03/14 06:17:28;;;;;;;4.18;3.78;;;;;;;;;;5064264;28;20369;-81
2022/03/14 06:19:55;;;;;;;4.35;3.95;;;;;;;;;;5038533;28;20074;-81
2022/03/14 06:22:23;;;;;;;4.20;3.90;;;;;;;;;;5070558;28;20522;-81
2022/03/14 06:24:50;;;;;;;4.57;4.18;;;;;;;;;;5047366;28;20515;-81
2022/03/14 06:27:20;;;;;;;5.07;4.60;;;;;;;;;;5049677;28;20044;-81
2022/03/14 06:29:47;;;;;;;5.15;4.75;;;;;;;;;;5067270;28;20448;-81
2022/03/14 06:32:17;;;;;;;6.13;5.63;;;;;;;;;;5060137;28;20045;-81
2022/03/14 06:34:43;;;;;;;6.53;6.03;;;;;;;;;;5061778;28;21741;-79
2022/03/14 06:37:09;;;;;;;7.93;7.13;;;;;;;;;;5067175;28;20052;-80
2022/03/14 06:39:36;;;;;;;7.68;6.97;;;;;;;;;;5053136;28;20045;-80
2022/03/14 06:42:02;;;;;;;7.53;6.80;;;;;;;;;;5054121;28;20131;-81
2022/03/14 06:44:29;;;;;;;8.00;7.30;;;;;;;;;;5051484;28;20106;-81
2022/03/14 06:46:55;;;;;;;7.60;6.90;;;;;;;;;;5064232;28;20052;-81
2022/03/14 06:49:21;;;;;;;7.13;6.50;;;;;;;;;;5063930;28;20076;-81
2022/03/14 06:51:49;;;;;;;7.65;6.95;;;;;;;;;;5059861;28;20056;-81
2022/03/14 06:54:15;;;;;;;7.68;6.97;;;;;;;;;;5068188;28;20144;-81
2022/03/14 06:56:44;;;;;;;7.80;7.00;;;;;;;;;;5058340;28;20095;-81
2022/03/14 06:59:10;;;;;;;8.50;7.70;;;;;;;;;;5068477;28;20127;-80
2022/03/14 07:01:36;;;;;;;7.82;7.03;;;;;;;;;;5049382;28;20064;-80
2022/03/14 07:04:02;;;;;;;8.43;7.72;;;;;;;;;;5060670;28;20464;-79
2022/03/14 07:06:29;;;;;;;8.32;7.43;;;;;;;;;;5066843;28;20053;-80
2022/03/14 07:08:55;;;;;;;8.93;8.13;;;;;;;;;;5055722;28;20067;-80
2022/03/14 07:11:21;;;;;;;10.50;9.50;;;;;;;;;;5074324;28;20044;-81
2022/03/14 07:13:47;;;;;;;10.52;9.52;;;;;;;;;;5068182;28;20051;-81
2022/03/14 07:16:20;;;;;;;12.27;11.18;;;;;;;;;;5061599;28;20037;-81
2022/03/14 07:18:46;;;;;;;13.65;12.35;;;;;;;;;;5060689;28;20049;-82
2022/03/14 07:21:12;;;;;;;15.82;14.23;;;;;;;;;;5043396;28;20052;-77
2022/03/14 07:23:38;;;;;;;18.38;16.52;;;;;;;;;;5052985;28;20423;-78
2022/03/14 07:26:07;;;;;;;16.92;15.27;;;;;;;;;;5063311;28;20036;-77
2022/03/14 07:28:34;;;;;;;18.88;17.08;;;;;;;;;;5043002;28;20571;-82
2022/03/14 07:31:00;;;;;;;18.77;16.80;;;;;;;;;;5040065;28;20048;-77
2022/03/14 07:33:28;;;;;;;17.42;15.73;;;;;;;;;;5054744;28;20045;-77
2022/03/14 07:35:54;;;;;;;19.55;17.58;;;;;;;;;;5061031;28;20083;-77
2022/03/14 07:38:20;;;;;;;20.98;18.95;;;;;;;;;;5060868;28;20040;-81
2022/03/14 07:40:46;;;;;;;22.85;20.65;;;;;;;;;;5039854;28;20048;-78
2022/03/14 07:43:12;;;;;;;22.05;19.58;;;;;;;;;;5063912;28;20048;-80
2022/03/14 07:45:38;;;;;;;22.98;20.02;;;;;;;;;;5058282;28;20115;-84
2022/03/14 07:48:05;;;;;;;22.42;20.23;;;;;;;;;;5045328;28;20052;-79
2022/03/14 07:50:32;;;;;;;24.17;21.58;;;;;;;;;;5050882;28;20067;-80
2022/03/14 07:52:58;;;;;;;24.30;21.58;;;;;;;;;;5055549;28;20409;-78
2022/03/14 07:55:25;;;;;;;25.85;22.92;;;;;;;;;;5064777;28;20505;-82
2022/03/14 07:57:51;;;;;;;25.67;22.42;;;;;;;;;;5038750;28;20501;-79
2022/03/14 08:00:19;;;;;;;30.73;23.27;;;;;;;;;;5062940;28;20715;-79
2022/03/14 08:02:45;;;;;;;27.35;23.52;;;;;;;;;;5044438;28;20047;-81
2022/03/14 08:05:16;;;;;;;27.27;23.02;;;;;;;;;;5065515;28;20047;-77
2022/03/14 08:07:44;;;;;;;29.70;24.50;;;;;;;;;;5057621;28;20369;-77
2022/03/14 08:10:11;;;;;;;28.77;22.75;;;;;;;;;;5052974;28;20048;-84
2022/03/14 08:12:58;;;;;;;30.80;23.58;;;;;;;;;;5042821;28;20481;-79
2022/03/14 08:15:24;;;;;;;31.42;23.95;;;;;;;;;;5064349;28;20127;-80
2022/03/14 08:17:50;;;;;;;28.98;23.35;;;;;;;;;;5072427;28;20085;-82
2022/03/14 08:20:16;;;;;;;29.13;22.92;;;;;;;;;;5054710;28;20068;-80
2022/03/14 08:22:42;;;;;;;27.88;22.40;;;;;;;;;;5070231;28;20052;-81
2022/03/14 08:25:09;;;;;;;27.52;21.50;;;;;;;;;;5070701;28;20079;-81
2022/03/14 08:27:35;;;;;;;27.90;21.20;;;;;;;;;;5080393;28;20148;-81
2022/03/14 08:30:02;;;;;;;24.75;20.80;;;;;;;;;;5057455;28;20048;-81
2022/03/14 08:32:28;;;;;;;25.30;20.42;;;;;;;;;;5076826;28;20131;-80
2022/03/14 08:34:56;;;;;;;23.45;19.30;;;;;;;;;;5062931;28;20068;-79
2022/03/14 08:37:22;;;;;;;27.15;19.70;;;;;;;;;;5084712;28;20432;-81
2022/03/14 08:39:48;;;;;;;25.05;19.05;;;;;;;;;;5082930;28;20036;-81
2022/03/14 08:42:15;;;;;;;22.08;17.73;;;;;;;;;;5055321;28;20503;-80
2022/03/14 08:44:41;;;;;;;21.58;17.38;;;;;;;;;;5071164;28;20043;-80
2022/03/14 08:47:07;;;;;;;20.55;15.88;;;;;;;;;;5049274;28;20047;-80
2022/03/14 08:49:34;;;;;;;17.27;13.57;;;;;;;;;;5069998;28;20056;-82
2022/03/14 08:52:00;;;;;;;15.07;11.70;;;;;;;;;;5067607;28;20049;-84
2022/03/14 08:54:26;;;;;;;13.57;10.93;;;;;;;;;;5052510;28;20059;-81
2022/03/14 08:56:52;;;;;;;15.75;10.93;;;;;;;;;;5065774;28;20048;-80
2022/03/14 08:59:18;;;;;;;14.73;10.70;;;;;;;;;;5069555;28;20124;-82
2022/03/14 09:01:44;;;;;;;14.95;11.65;;;;;;;;;;5054532;28;20049;-83
2022/03/14 09:04:10;;;;;;;14.20;10.65;;;;;;;;;;5071439;28;20133;-84
2022/03/14 09:06:36;;;;;;;14.88;9.80;;;;;;;;;;5057054;28;20040;-84
2022/03/14 09:09:03;;;;;;;15.18;10.70;;;;;;;;;;5069529;28;20468;-82
2022/03/14 09:11:29;;;;;;;15.52;10.80;;;;;;;;;;5051787;28;20048;-82
2022/03/14 09:13:58;;;;;;;13.60;10.20;;;;;;;;;;5064497;28;20119;-83
2022/03/14 09:16:24;;;;;;;12.80;10.52;;;;;;;;;;5063528;28;20124;-83
2022/03/14 09:18:52;;;;;;;15.13;9.52;;;;;;;;;;5057931;28;20079;-83
2022/03/14 09:21:23;;;;;;;11.75;9.65;;;;;;;;;;5061348;28;20076;-82
2022/03/14 09:23:49;;;;;;;14.30;9.73;;;;;;;;;;5069508;28;20123;-81
2022/03/14 09:26:16;;;;;;;12.43;9.43;;;;;;;;;;5069668;28;20080;-81
2022/03/14 09:28:44;;;;;;;10.82;7.97;;;;;;;;;;5042323;28;20045;-81
2022/03/14 09:31:12;;;;;;;9.95;7.15;;;;;;;;;;5058698;28;20048;-79
2022/03/14 09:33:38;;;;;;;11.30;7.10;;;;;;;;;;5068798;28;20408;-80
2022/03/14 09:36:04;;;;;;;8.38;6.10;;;;;;;;;;5063782;28;20076;-79
2022/03/14 09:38:31;;;;;;;10.82;5.60;;;;;;;;;;5063089;28;20445;-77
2022/03/14 09:41:01;;;;;;;9.52;5.45;;;;;;;;;;5063475;28;20135;-82
2022/03/14 09:43:27;;;;;;;8.73;5.20;;;;;;;;;;5068442;28;20475;-82
2022/03/14 09:45:53;;;;;;;6.72;4.68;;;;;;;;;;5064262;28;20045;-79
2022/03/14 09:48:20;;;;;;;11.38;5.07;;;;;;;;;;5059696;28;20048;-81
2022/03/14 09:50:47;;;;;;;7.97;4.88;;;;;;;;;;5066845;28;20037;-78
2022/03/14 09:53:14;;;;;;;8.40;4.88;;;;;;;;;;5066906;28;20040;-79
2022/03/14 09:55:44;;;;;;;8.27;4.70;;;;;;;;;;5067530;28;20056;-83
2022/03/14 09:58:14;;;;;;;8.50;4.18;;;;;;;;;;5044739;28;20045;-81
2022/03/14 10:00:41;;;;;;;7.93;4.00;;;;;;;;;;5055942;28;20037;-84
2022/03/14 10:03:07;;;;;;;6.35;4.00;;;;;;;;;;5043983;28;20052;-85
2022/03/14 10:05:33;;;;;;;7.65;3.90;;;;;;;;;;5043157;28;20051;-82
2022/03/14 10:08:00;;;;;;;8.00;3.67;;;;;;;;;;5046538;28;20043;-81
2022/03/14 10:10:26;;;;;;;7.82;4.10;;;;;;;;;;5061688;28;20080;-81
2022/03/14 10:12:57;;;;;;;11.02;4.75;;;;;;;;;;5066296;28;20044;-81
2022/03/14 10:15:27;;;;;;;8.95;4.00;;;;;;;;;;5062366;28;20515;-80
2022/03/14 10:17:54;;;;;;;10.27;4.40;;;;;;;;;;5068684;28;20040;-80
2022/03/14 10:20:21;;;;;;;8.95;4.68;;;;;;;;;;5041110;28;20045;-80
2022/03/14 10:22:48;;;;;;;9.80;4.63;;;;;;;;;;5066613;28;20391;-81
2022/03/14 10:25:18;;;;;;;7.93;5.45;;;;;;;;;;5068081;28;20036;-80
2022/03/14 10:27:49;;;;;;;7.93;5.75;;;;;;;;;;5046481;28;20045;-81
2022/03/14 10:30:25;;;;;;;9.55;6.00;;;;;;;;;;5052421;28;20055;-85
2022/03/14 10:32:57;;;;;;;12.65;6.65;;;;;;;;;;5066055;28;20047;-84
2022/03/14 10:35:24;;;;;;;7.90;6.15;;;;;;;;;;5068474;28;20036;-81
2022/03/14 10:38:01;;;;;;;10.45;6.20;;;;;;;;;;5053724;28;20049;-85
2022/03/14 10:40:46;;;;;;;8.95;6.18;;;;;;;;;;5059588;28;20555;-82
2022/03/14 10:43:23;;;;;;;10.57;6.47;;;;;;;;;;5050294;28;20039;-83
2022/03/14 10:45:49;;;;;;;12.98;6.93;;;;;;;;;;5045014;28;20586;-81
2022/03/14 10:48:15;;;;;;;13.43;7.78;;;;;;;;;;5054710;28;20049;-77
2022/03/14 10:50:42;;;;;;;12.98;7.90;;;;;;;;;;5021557;28;20044;-82
2022/03/14 10:53:10;;;;;;;10.95;7.88;;;;;;;;;;5068098;28;20041;-83
2022/03/14 10:55:37;;;;;;;13.85;8.20;;;;;;;;;;5067684;28;20037;-83
2022/03/14 10:58:12;;;;;;;12.30;7.82;;;;;;;;;;5061944;28;20056;-80
2022/03/14 11:00:45;;;;;;;15.50;8.93;;;;;;;;;;5046481;28;20098;-82
2022/03/14 11:03:12;;;;;;;11.43;8.27;;;;;;;;;;5067007;28;20032;-84
2022/03/14 11:05:44;;;;;;;11.65;8.35;;;;;;;;;;5064091;28;20040;-82
2022/03/14 11:08:29;;;;;;;12.80;8.13;;;;;;;;;;5071693;28;20041;-82
2022/03/14 11:10:56;;;;;;;10.60;7.85;;;;;;;;;;5055249;28;20793;-82
2022/03/14 11:13:22;;;;;;;14.68;7.75;;;;;;;;;;5061390;28;20464;-85
2022/03/14 11:15:48;;;;;;;13.70;8.05;;;;;;;;;;5046733;28;20048;-87
2022/03/14 11:18:16;;;;;;;11.38;7.35;;;;;;;;;;5058005;28;20044;-86
2022/03/14 11:20:42;;;;;;;12.35;7.43;;;;;;;;;;5068016;28;20072;-87
2022/03/14 11:23:12;;;;;;;11.57;7.18;;;;;;;;;;5049683;28;20059;-87
2022/03/14 11:25:39;;;;;;;12.40;7.78;;;;;;;;;;5054428;28;20419;-81
2022/03/14 11:28:06;;;;;;;13.63;8.02;;;;;;;;;;5044536;28;20085;-83
2022/03/14 11:30:36;;;;;;;12.95;7.65;;;;;;;;;;5048379;28;20059;-78
2022/03/14 11:33:03;;;;;;;12.77;7.82;;;;;;;;;;5052626;28;20107;-80
2022/03/14 11:35:30;;;;;;;15.35;8.15;;;;;;;;;;5069407;28;20037;-80
2022/03/14 11:37:57;;;;;;;11.00;8.10;;;;;;;;;;5048382;28;20495;-85
2022/03/14 11:40:23;;;;;;;11.70;7.65;;;;;;;;;;5069881;28;20098;-83
2022/03/14 11:42:50;;;;;;;13.27;7.85;;;;;;;;;;5064848;28;20049;-82
2022/03/14 11:45:17;;;;;;;11.57;7.75;;;;;;;;;;5065610;28;20052;-80
2022/03/14 11:47:43;;;;;;;12.13;8.65;;;;;;;;;;5053319;28;20052;-84
2022/03/14 11:50:09;;;;;;;13.45;8.63;;;;;;;;;;5069596;28;20865;-83
2022/03/14 11:52:40;;;;;;;12.05;8.68;;;;;;;;;;5045405;28;20373;-83
2022/03/14 11:55:16;;;;;;;13.23;7.53;;;;;;;;;;5070482;28;20060;-82
2022/03/14 11:57:47;;;;;;;13.82;8.63;;;;;;;;;;5065079;28;20064;-82
2022/03/14 12:00:27;;;;;;;12.80;7.60;;;;;;;;;;5070601;28;20435;-84
2022/03/14 12:02:53;;;;;;;14.20;7.55;;;;;;;;;;5060021;28;20428;-83
2022/03/14 12:05:31;;;;;;;11.52;7.85;;;;;;;;;;5067161;28;20093;-86
2022/03/14 12:07:57;;;;;;;11.65;7.88;;;;;;;;;;5066082;28;20044;-84
2022/03/14 12:10:34;;;;;;;15.80;7.30;;;;;;;;;;5062059;28;20399;-85
2022/03/14 12:13:01;;;;;;;11.77;7.10;;;;;;;;;;5035981;28;20506;-83
2022/03/14 12:15:41;;;;;;;11.00;7.00;;;;;;;;;;5045091;28;20044;-86
2022/03/14 12:18:26;;;;;;;11.52;7.00;;;;;;;;;;5057640;28;20044;-81
2022/03/14 12:20:52;;;;;;;13.95;7.18;;;;;;;;;;5064635;28;20041;-82
2022/03/14 12:23:26;;;;;;;12.10;6.72;;;;;;;;;;5065959;28;20516;-82
2022/03/14 12:25:55;;;;;;;15.60;7.10;;;;;;;;;;5065579;28;20410;-80
2022/03/14 12:28:48;;;;;;;10.75;6.68;;;;;;;;;;5066527;28;20076;-80
2022/03/14 12:31:15;;;;;;;10.10;6.82;;;;;;;;;;5040602;28;20049;-80
2022/03/14 12:33:51;;;;;;;13.15;6.82;;;;;;;;;;5065630;28;20360;-82
2022/03/14 12:36:21;;;;;;;11.80;6.65;;;;;;;;;;5065852;28;20055;-81
2022/03/14 12:39:05;;;;;;;12.52;6.90;;;;;;;;;;5052438;28;20043;-82
2022/03/14 12:41:31;;;;;;;9.32;5.93;;;;;;;;;;5058763;28;20052;-83
2022/03/14 12:43:57;;;;;;;10.52;6.30;;;;;;;;;;5082541;28;20052;-82
2022/03/14 12:46:24;;;;;;;11.98;5.93;;;;;;;;;;5068590;28;20041;-82
2022/03/14 12:48:51;;;;;;;11.10;6.07;;;;;;;;;;5063635;28;20149;-81
2022/03/14 12:51:24;;;;;;;11.48;5.93;;;;;;;;;;5064473;28;20045;-83
2022/03/14 12:53:51;;;;;;;14.55;5.75;;;;;;;;;;5057648;28;20049;-81
2022/03/14 12:56:19;;;;;;;12.10;5.80;;;;;;;;;;5053824;28;20055;-82
2022/03/14 12:58:55;;;;;;;11.00;5.28;;;;;;;;;;5065893;28;20124;-82
2022/03/14 13:01:21;;;;;;;14.43;5.93;;;;;;;;;;5074758;28;20101;-84
2022/03/14 13:03:47;;;;;;;11.27;4.78;;;;;;;;;;5073372;28;20362;-83
2022/03/14 13:06:14;;;;;;;9.40;4.93;;;;;;;;;;5053811;28;20051;-83
2022/03/14 13:08:50;;;;;;;11.93;4.82;;;;;;;;;;5062782;28;20036;-83
2022/03/14 13:11:17;;;;;;;9.35;5.43;;;;;;;;;;5056700;28;20071;-83
2022/03/14 13:13:44;;;;;;;12.40;5.00;;;;;;;;;;5046537;28;20483;-83
2022/03/14 13:16:12;;;;;;;9.68;4.82;;;;;;;;;;5054831;28;20090;-83
2022/03/14 13:18:38;;;;;;;8.18;4.68;;;;;;;;;;5049243;28;20084;-83
2022/03/14 13:21:11;;;;;;;12.82;5.18;;;;;;;;;;5070520;28;20071;-83
2022/03/14 13:23:38;;;;;;;7.50;4.30;;;;;;;;;;5072824;28;20128;-84
2022/03/14 13:26:04;;;;;;;11.75;4.40;;;;;;;;;;5072971;28;20501;-83
2022/03/14 13:28:31;;;;;;;9.27;4.30;;;;;;;;;;5072099;28;20438;-83
2022/03/14 13:30:58;;;;;;;10.23;4.32;;;;;;;;;;5051794;28;20048;-84
2022/03/14 13:33:29;;;;;;;11.05;4.00;;;;;;;;;;5071154;28;20051;-82
2022/03/14 13:35:56;;;;;;;9.68;4.50;;;;;;;;;;5047164;28;20064;-83
2022/03/14 13:38:29;;;;;;;12.05;4.55;;;;;;;;;;5054165;28;20040;-82
2022/03/14 13:40:55;;;;;;;;;;;;;;;;;;5072609;28;20090;-83
2022/03/14 13:43:22;;;;;;;7.10;3.83;;;;;;;;;;5069105;28;19940;-83
2022/03/14 13:45:48;;;;;;;10.88;4.30;;;;;;;;;;5061841;28;20048;-83
2022/03/14 13:48:23;;;;;;;9.30;4.28;;;;;;;;;;5048871;28;20045;-83
2022/03/14 13:50:50;;;;;;;8.40;3.70;;;;;;;;;;5029565;28;20495;-84
2022/03/14 13:53:20;;;;;;;6.97;3.70;;;;;;;;;;5053261;28;20076;-84
2022/03/14 13:55:54;;;;;;;7.63;3.40;;;;;;;;;;5050378;28;20041;-85
2022/03/14 13:58:27;;;;;;;6.93;3.40;;;;;;;;;;5034880;28;20074;-84
2022/03/14 14:00:54;;;;;;;11.32;3.90;;;;;;;;;;5052052;28;20041;-84
2022/03/14 14:03:21;;;;;;;11.25;3.83;;;;;;;;;;5048520;28;20804;-84
2022/03/14 14:05:47;;;;;;;7.65;3.60;;;;;;;;;;5034112;28;20037;-83
2022/03/14 14:08:29;;;;;;;7.78;3.75;;;;;;;;;;5043017;28;20045;-83
2022/03/14 14:10:55;;;;;;;9.07;3.90;;;;;;;;;;5028194;28;20041;-83
2022/03/14 14:13:21;;;;;;;8.88;3.80;;;;;;;;;;5044141;28;20049;-83
2022/03/14 14:15:49;;;;;;;10.55;4.35;;;;;;;;;;5049723;28;20476;-83
2022/03/14 14:18:19;;;;;;;8.38;3.90;;;;;;;;;;5051417;28;20045;-83
2022/03/14 14:20:45;;;;;;;9.60;4.18;;;;;;;;;;5046792;28;20118;-84
2022/03/14 14:23:15;;;;;;;7.05;3.75;;;;;;;;;;5030313;28;20489;-83
2022/03/14 14:25:45;;;;;;;8.90;4.35;;;;;;;;;;5034499;28;20045;-82
2022/03/14 14:28:11;;;;;;;7.53;3.90;;;;;;;;;;5051822;28;20505;-82
2022/03/14 14:30:39;;;;;;;7.05;3.95;;;;;;;;;;5052781;28;20049;-83
2022/03/14 14:33:06;;;;;;;9.55;4.00;;;;;;;;;;5052369;28;20049;-83
2022/03/14 14:35:34;;;;;;;10.00;4.13;;;;;;;;;;5047778;28;20160;-82
2022/03/14 14:38:00;;;;;;;6.07;3.53;;;;;;;;;;5048725;28;20041;-83